Pacific Dawn — 3ECJ9 — position and weather

sailwx.info

Track history (hours):
 
Tides and Currents Weather Stations Pressure Air Temp Water Temp Dewpoint Dewpoint Depression Visibility Wind Speed Wind Dir Waves Ship Positions

Pacific Dawn

Last reported at 2017-May-09 18:30 UTC. Time now 2017-May-24 00:19 UTC.
Position N 01°15' E 104°06'.
Warning: this ship's position is 14 days out of date.

Length 239 m; draft 12 m.

Type: Ship. MMSI: 371361000.

Date/timePositionNaut miles runAvg speedWind from/ knotsBaromVisibWave heightAir tempDewpointWater temp
2017-May-09 18:30N 01°15' E 104°06'612.4
2017-May-09 18:00N 01°14' E 104°00'612.0
2017-May-09 17:30N 01°13' E 103°54'612.0
2017-May-09 17:00N 01°10' E 103°49'5 9.1
2017-May-09 16:30N 01°07' E 103°46'5 9.7
2017-May-09 15:59N 01°04' E 103°42'5 8.5
2017-May-09 15:26N 01°04' E 103°37'510.4
2017-May-09 14:59N 01°06' E 103°33'7 7.3
2017-May-09 13:58N 01°13' E 103°31'3 5.7
2017-May-09 13:30N 01°15' E 103°33'0 0.2
2017-May-09 12:05N 01°15' E 103°33'0 0.0
2017-May-09 11:53N 01°15' E 103°33'0 0.1
2017-May-09 11:23N 01°15' E 103°33'0 0.1
2017-May-09 10:50N 01°15' E 103°33'0 0.0
2017-May-09 09:35N 01°15' E 103°33'0 0.0
2017-May-09 09:29N 01°15' E 103°33'0 0.0
2017-May-09 08:59N 01°15' E 103°33'0 0.0
2017-May-09 08:23N 01°15' E 103°33'0 0.0
2017-May-09 07:50N 01°15' E 103°33'0 0.0
2017-May-09 07:17N 01°15' E 103°33'0 0.0
2017-May-09 06:59N 01°15' E 103°33'0 0.1
2017-May-09 06:05N 01°15' E 103°33'0 0.1
2017-May-09 03:47N 01°15' E 103°34'0 0.1
2017-May-09 00:35N 01°15' E 103°33'0 0.0
2017-May-09 00:17N 01°15' E 103°33'0 0.1
2017-May-08 23:47N 01°15' E 103°33'0 0.1
2017-May-08 23:23N 01°15' E 103°33'0 0.0
2017-May-08 22:59N 01°15' E 103°33'0 0.1
2017-May-08 22:29N 01°15' E 103°33'0 0.1
2017-May-08 21:56N 01°15' E 103°33'0 0.0
2017-May-08 21:29N 01°15' E 103°33'0 0.0
2017-May-08 20:53N 01°15' E 103°33'0 0.0
2017-May-08 20:29N 01°15' E 103°33'0 0.0
2017-May-08 19:50N 01°15' E 103°33'0 0.4
2017-May-08 19:26N 01°15' E 103°33'0 0.3
2017-May-08 18:59N 01°15' E 103°34'0 0.2
2017-May-08 18:26N 01°15' E 103°34'0 0.0
2017-May-08 17:59N 01°15' E 103°34'0 0.0
2017-May-08 17:29N 01°15' E 103°34'0 0.1
2017-May-08 16:56N 01°15' E 103°34'0 0.0
2017-May-08 16:29N 01°15' E 103°34'0 0.1
2017-May-08 15:56N 01°15' E 103°34'0 0.0
2017-May-08 14:53N 01°15' E 103°34'0 0.0
2017-May-08 13:44N 01°15' E 103°34'0 0.2
2017-May-08 13:17N 01°15' E 103°34'0 0.1
2017-May-08 12:59N 01°15' E 103°34'0 0.1
2017-May-08 12:29N 01°15' E 103°34'0 0.1
2017-May-08 11:53N 01°15' E 103°33'0 0.2
2017-May-08 11:29N 01°15' E 103°33'0 0.1
2017-May-08 10:59N 01°15' E 103°33'0 0.1
2017-May-08 10:29N 01°15' E 103°33'0 0.0
2017-May-08 09:56N 01°15' E 103°33'0 0.0
2017-May-08 09:29N 01°15' E 103°33'0 0.1
2017-May-08 08:50N 01°15' E 103°33'0 0.0
2017-May-08 08:05N 01°15' E 103°33'0 0.1
2017-May-08 07:50N 01°15' E 103°33'0 0.2
2017-May-08 07:26N 01°14' E 103°33'0 0.1
2017-May-08 06:56N 01°14' E 103°33'0 0.3
2017-May-08 06:29N 01°14' E 103°34'0 0.0
2017-May-08 05:59N 01°14' E 103°34'0 0.0
2017-May-08 05:29N 01°14' E 103°34'0 0.1
2017-May-08 04:59N 01°15' E 103°34'0 0.0
2017-May-08 04:29N 01°15' E 103°34'0 0.0
2017-May-08 03:56N 01°15' E 103°34'0 0.0
2017-May-08 03:26N 01°15' E 103°34'0 0.1
2017-May-08 02:56N 01°15' E 103°34'0 0.1
2017-May-08 02:11N 01°15' E 103°34'0 0.0
2017-May-08 01:47N 01°15' E 103°34'0 0.1
2017-May-08 01:20N 01°15' E 103°34'0 0.2
2017-May-08 00:56N 01°15' E 103°34'0 0.1
2017-May-08 00:05N 01°15' E 103°34'0 0.0
2017-May-07 23:59N 01°15' E 103°34'0 0.2
2017-May-07 23:14N 01°15' E 103°33'0 0.0
2017-May-07 22:59N 01°15' E 103°33'0 0.0
2017-May-07 22:20N 01°15' E 103°33'0 0.1
2017-May-07 21:56N 01°15' E 103°33'0 0.2
2017-May-07 21:29N 01°15' E 103°33'0 0.0
2017-May-07 20:47N 01°15' E 103°33'0 0.1
2017-May-07 20:29N 01°15' E 103°33'0 0.0
2017-May-07 19:56N 01°15' E 103°33'0 0.0
2017-May-07 19:20N 01°15' E 103°33'0 0.0
2017-May-07 18:59N 01°15' E 103°33'0 0.2
2017-May-07 18:29N 01°14' E 103°33'0 0.2
2017-May-07 17:59N 01°14' E 103°34'0 0.1
2017-May-07 17:29N 01°14' E 103°34'0 0.1
2017-May-07 16:59N 01°14' E 103°34'0 0.0
2017-May-07 10:29N 01°15' E 103°33'0 0.0
2017-May-07 09:53N 01°15' E 103°33'0 0.0
2017-May-07 02:20N 01°15' E 103°34'0 0.0
2017-May-07 01:59N 01°15' E 103°34'0 0.0
2017-May-07 01:29N 01°15' E 103°34'0 0.1
2017-May-07 00:59N 01°15' E 103°34'0 0.3
2017-May-07 00:30N 01°15' E 103°33'1 1.9
2017-May-07 00:00N 01°15' E 103°32'2 4.1
2017-May-06 23:30N 01°13' E 103°32'2 3.8
2017-May-06 23:00N 01°12' E 103°34'2 4.1
2017-May-06 22:30N 01°12' E 103°36'2 3.2
2017-May-06 22:00N 01°12' E 103°37'2 4.3
2017-May-06 21:30N 01°11' E 103°39'2 4.9
2017-May-06 21:00N 01°10' E 103°41'3 6.2
2017-May-06 20:30N 01°09' E 103°44'510.3
2017-May-06 20:00N 01°11' E 103°49'5 9.4
2017-May-06 19:30N 01°13' E 103°53'4 8.4
2017-May-06 19:00N 01°14' E 103°57'5 9.8
2017-May-06 18:30N 01°16' E 104°02'  
Track history (hours):
 
Tides and Currents Weather Stations Pressure Air Temp Water Temp Dewpoint Dewpoint Depression Visibility Wind Speed Wind Dir Waves Ship Positions

Pacific Dawn

Last reported at 2017-May-09 18:30 UTC. Time now 2017-May-24 00:19 UTC.
Position N 01°15' E 104°06'.
Warning: this ship's position is 14 days out of date.

Length 239 m; draft 12 m.

Type: Ship. MMSI: 371361000.

Date/timePositionNaut miles runAvg speedWind from/ knotsBaromVisibWave heightAir tempDewpointWater temp
2017-May-09 18:30N 01°15' E 104°06'612.4
2017-May-09 18:00N 01°14' E 104°00'612.0
2017-May-09 17:30N 01°13' E 103°54'612.0
2017-May-09 17:00N 01°10' E 103°49'5 9.1
2017-May-09 16:30N 01°07' E 103°46'5 9.7
2017-May-09 15:59N 01°04' E 103°42'5 8.5
2017-May-09 15:26N 01°04' E 103°37'510.4
2017-May-09 14:59N 01°06' E 103°33'7 7.3
2017-May-09 13:58N 01°13' E 103°31'3 5.7
2017-May-09 13:30N 01°15' E 103°33'0 0.2
2017-May-09 12:05N 01°15' E 103°33'0 0.0
2017-May-09 11:53N 01°15' E 103°33'0 0.1
2017-May-09 11:23N 01°15' E 103°33'0 0.1
2017-May-09 10:50N 01°15' E 103°33'0 0.0
2017-May-09 09:35N 01°15' E 103°33'0 0.0
2017-May-09 09:29N 01°15' E 103°33'0 0.0
2017-May-09 08:59N 01°15' E 103°33'0 0.0
2017-May-09 08:23N 01°15' E 103°33'0 0.0
2017-May-09 07:50N 01°15' E 103°33'0 0.0
2017-May-09 07:17N 01°15' E 103°33'0 0.0
2017-May-09 06:59N 01°15' E 103°33'0 0.1
2017-May-09 06:05N 01°15' E 103°33'0 0.1
2017-May-09 03:47N 01°15' E 103°34'0 0.1
2017-May-09 00:35N 01°15' E 103°33'0 0.0
2017-May-09 00:17N 01°15' E 103°33'0 0.1
2017-May-08 23:47N 01°15' E 103°33'0 0.1
2017-May-08 23:23N 01°15' E 103°33'0 0.0
2017-May-08 22:59N 01°15' E 103°33'0 0.1
2017-May-08 22:29N 01°15' E 103°33'0 0.1
2017-May-08 21:56N 01°15' E 103°33'0 0.0
2017-May-08 21:29N 01°15' E 103°33'0 0.0
2017-May-08 20:53N 01°15' E 103°33'0 0.0
2017-May-08 20:29N 01°15' E 103°33'0 0.0
2017-May-08 19:50N 01°15' E 103°33'0 0.4
2017-May-08 19:26N 01°15' E 103°33'0 0.3
2017-May-08 18:59N 01°15' E 103°34'0 0.2
2017-May-08 18:26N 01°15' E 103°34'0 0.0
2017-May-08 17:59N 01°15' E 103°34'0 0.0
2017-May-08 17:29N 01°15' E 103°34'0 0.1
2017-May-08 16:56N 01°15' E 103°34'0 0.0
2017-May-08 16:29N 01°15' E 103°34'0 0.1
2017-May-08 15:56N 01°15' E 103°34'0 0.0
2017-May-08 14:53N 01°15' E 103°34'0 0.0
2017-May-08 13:44N 01°15' E 103°34'0 0.2
2017-May-08 13:17N 01°15' E 103°34'0 0.1
2017-May-08 12:59N 01°15' E 103°34'0 0.1
2017-May-08 12:29N 01°15' E 103°34'0 0.1
2017-May-08 11:53N 01°15' E 103°33'0 0.2
2017-May-08 11:29N 01°15' E 103°33'0 0.1
2017-May-08 10:59N 01°15' E 103°33'0 0.1
2017-May-08 10:29N 01°15' E 103°33'0 0.0
2017-May-08 09:56N 01°15' E 103°33'0 0.0
2017-May-08 09:29N 01°15' E 103°33'0 0.1
2017-May-08 08:50N 01°15' E 103°33'0 0.0
2017-May-08 08:05N 01°15' E 103°33'0 0.1
2017-May-08 07:50N 01°15' E 103°33'0 0.2
2017-May-08 07:26N 01°14' E 103°33'0 0.1
2017-May-08 06:56N 01°14' E 103°33'0 0.3
2017-May-08 06:29N 01°14' E 103°34'0 0.0
2017-May-08 05:59N 01°14' E 103°34'0 0.0
2017-May-08 05:29N 01°14' E 103°34'0 0.1
2017-May-08 04:59N 01°15' E 103°34'0 0.0
2017-May-08 04:29N 01°15' E 103°34'0 0.0
2017-May-08 03:56N 01°15' E 103°34'0 0.0
2017-May-08 03:26N 01°15' E 103°34'0 0.1
2017-May-08 02:56N 01°15' E 103°34'0 0.1
2017-May-08 02:11N 01°15' E 103°34'0 0.0
2017-May-08 01:47N 01°15' E 103°34'0 0.1
2017-May-08 01:20N 01°15' E 103°34'0 0.2
2017-May-08 00:56N 01°15' E 103°34'0 0.1
2017-May-08 00:05N 01°15' E 103°34'0 0.0
2017-May-07 23:59N 01°15' E 103°34'0 0.2
2017-May-07 23:14N 01°15' E 103°33'0 0.0
2017-May-07 22:59N 01°15' E 103°33'0 0.0
2017-May-07 22:20N 01°15' E 103°33'0 0.1
2017-May-07 21:56N 01°15' E 103°33'0 0.2
2017-May-07 21:29N 01°15' E 103°33'0 0.0
2017-May-07 20:47N 01°15' E 103°33'0 0.1
2017-May-07 20:29N 01°15' E 103°33'0 0.0
2017-May-07 19:56N 01°15' E 103°33'0 0.0
2017-May-07 19:20N 01°15' E 103°33'0 0.0
2017-May-07 18:59N 01°15' E 103°33'0 0.2
2017-May-07 18:29N 01°14' E 103°33'0 0.2
2017-May-07 17:59N 01°14' E 103°34'0 0.1
2017-May-07 17:29N 01°14' E 103°34'0 0.1
2017-May-07 16:59N 01°14' E 103°34'0 0.0
2017-May-07 10:29N 01°15' E 103°33'0 0.0
2017-May-07 09:53N 01°15' E 103°33'0 0.0
2017-May-07 02:20N 01°15' E 103°34'0 0.0
2017-May-07 01:59N 01°15' E 103°34'0 0.0
2017-May-07 01:29N 01°15' E 103°34'0 0.1
2017-May-07 00:59N 01°15' E 103°34'0 0.3
2017-May-07 00:30N 01°15' E 103°33'1 1.9
2017-May-07 00:00N 01°15' E 103°32'2 4.1
2017-May-06 23:30N 01°13' E 103°32'2 3.8
2017-May-06 23:00N 01°12' E 103°34'2 4.1
2017-May-06 22:30N 01°12' E 103°36'2 3.2
2017-May-06 22:00N 01°12' E 103°37'2 4.3
2017-May-06 21:30N 01°11' E 103°39'2 4.9
2017-May-06 21:00N 01°10' E 103°41'3 6.2
2017-May-06 20:30N 01°09' E 103°44'510.3
2017-May-06 20:00N 01°11' E 103°49'5 9.4
2017-May-06 19:30N 01°13' E 103°53'4 8.4
2017-May-06 19:00N 01°14' E 103°57'5 9.8
2017-May-06 18:30N 01°16' E 104°02'  

Dump ship's entire track history